Terminal Aerodrome Forecast
Issued by NWS

Home | Current Version | Previous Version | Graphics & Text | Print | Product List | Glossary On
Versions: 1 2 3 4 5 6 7 8 9 10 11 12 13 14 15 16 17 18 19 20 21 22 23 24 25
000
FTUS43 KABR 272300
TAFATY
TAF
KATY 272329Z 2800/2824 14010KT 6SM -SN BKN035 OVC050
      TEMPO 2800/2804 3SM -SN BKN025 OVC040
     FM280400 13010KT P6SM BKN030 OVC070=

USA.gov is the U.S. government's official web portal to all federal, state and local government web resources and services.